createdAt,value
2018-04-16T00:03:32.640Z,73.60
2018-04-16T00:07:35.308Z,73.60
2018-04-16T00:11:37.988Z,73.60
2018-04-16T00:15:41.421Z,73.60
2018-04-16T00:19:44.084Z,73.60
2018-04-16T00:23:47.579Z,73.70
2018-04-16T00:27:50.243Z,73.70
2018-04-16T00:31:58.547Z,73.70
2018-04-16T00:36:06.904Z,73.70
2018-04-16T00:40:15.276Z,73.10
2018-04-16T00:44:23.618Z,73.70
2018-04-16T00:48:32.107Z,73.80
2018-04-16T00:52:40.433Z,73.80
2018-04-16T01:01:25.736Z,73.60
2018-04-16T01:05:34.689Z,73.60
2018-04-16T01:09:43.011Z,73.50
2018-04-16T01:13:51.247Z,73.60
2018-04-16T01:17:59.449Z,73.70
2018-04-16T01:31:12.064Z,73.70
2018-04-16T01:35:32.388Z,73.90
2018-04-16T01:39:53.853Z,74.00
2018-04-16T01:44:02.171Z,74.00
2018-04-16T01:48:10.458Z,74.00
2018-04-16T01:52:18.753Z,73.90
2018-04-16T01:56:27.141Z,74.10
2018-04-16T02:00:35.406Z,73.70
2018-04-16T02:04:43.814Z,74.10
2018-04-16T02:08:52.169Z,74.00
2018-04-16T02:13:00.647Z,74.00
2018-04-16T02:17:08.968Z,73.90
2018-04-16T02:21:17.309Z,73.70
2018-04-16T02:25:25.668Z,74.00
2018-04-16T02:29:34.823Z,74.20
2018-04-16T02:33:43.059Z,73.70
2018-04-16T02:37:51.412Z,74.00
2018-04-16T02:41:59.624Z,74.10
2018-04-16T02:46:08.000Z,74.00
2018-04-16T02:50:17.101Z,74.10
2018-04-16T02:54:25.517Z,74.10
2018-04-16T02:58:33.675Z,74.10
2018-04-16T03:02:41.989Z,74.40
2018-04-16T03:06:50.362Z,74.40
2018-04-16T03:10:58.649Z,75.00
2018-04-16T03:15:07.801Z,74.20
2018-04-16T03:19:15.992Z,74.20
2018-04-16T03:23:24.413Z,75.00
2018-04-16T03:27:32.840Z,74.30
2018-04-16T03:31:41.981Z,74.30
2018-04-16T03:35:51.154Z,74.20
2018-04-16T03:39:59.433Z,74.10
2018-04-16T03:44:07.826Z,74.40
2018-04-16T03:48:16.091Z,74.60
2018-04-16T03:52:25.268Z,74.80
2018-04-16T03:56:27.960Z,74.70
2018-04-16T04:00:30.650Z,74.70
2018-04-16T04:04:33.333Z,74.60
2018-04-16T04:08:36.030Z,74.60
2018-04-16T04:12:38.762Z,74.60
2018-04-16T04:16:41.430Z,74.70
2018-04-16T04:20:44.049Z,74.70
2018-04-16T04:24:58.497Z,74.90
2018-04-16T04:29:13.048Z,74.20
2018-04-16T04:33:15.712Z,74.60
2018-04-16T04:37:18.388Z,74.60
2018-04-16T04:41:21.010Z,74.70
2018-04-16T04:45:23.689Z,74.60
2018-04-16T04:49:26.359Z,74.30
2018-04-16T04:53:29.125Z,74.60
2018-04-16T04:57:32.556Z,74.50
2018-04-16T05:01:35.224Z,75.20
2018-04-16T05:05:38.733Z,74.60
2018-04-16T05:09:42.168Z,74.60
2018-04-16T05:13:44.838Z,74.60
2018-04-16T05:17:48.328Z,74.50
2018-04-16T05:21:51.008Z,74.50
2018-04-16T05:25:53.674Z,74.80
2018-04-16T05:29:56.409Z,74.80
2018-04-16T05:33:59.849Z,75.70
2018-04-16T05:38:02.491Z,75.60
2018-04-16T05:42:05.160Z,75.80
2018-04-16T05:46:07.811Z,75.60
2018-04-16T05:50:10.456Z,75.30
2018-04-16T05:54:13.869Z,75.50
2018-04-16T05:58:17.297Z,75.40
2018-04-16T06:02:19.922Z,75.40
2018-04-16T06:06:22.576Z,75.70
2018-04-16T06:10:25.223Z,76.00
2018-04-16T06:14:27.869Z,76.20
2018-04-16T06:18:30.520Z,76.30
2018-04-16T06:22:33.912Z,76.50
2018-04-16T06:26:37.353Z,76.60
2018-04-16T06:30:40.131Z,76.50
2018-04-16T06:34:43.552Z,76.40
2018-04-16T06:38:46.208Z,76.40
2018-04-16T06:42:48.821Z,76.50
2018-04-16T06:46:51.473Z,76.50
2018-04-16T06:50:54.929Z,76.60
2018-04-16T06:54:57.585Z,76.60
2018-04-16T06:59:00.274Z,77.50
2018-04-16T07:03:03.666Z,77.30
2018-04-16T07:07:06.322Z,77.30
2018-04-16T07:11:08.979Z,78.30
2018-04-16T07:15:11.643Z,77.50
2018-04-16T07:19:15.050Z,79.30
2018-04-16T07:23:17.729Z,81.80
2018-04-16T07:27:20.393Z,80.90
2018-04-16T07:31:23.121Z,81.10
2018-04-16T07:35:26.549Z,78.90
2018-04-16T07:39:29.248Z,78.80
2018-04-16T07:43:31.880Z,76.90
2018-04-16T07:47:34.536Z,76.20
2018-04-16T07:51:37.176Z,75.00
2018-04-16T07:55:39.820Z,75.00
2018-04-16T07:59:42.468Z,75.30
2018-04-16T08:03:45.842Z,73.80
2018-04-16T08:07:48.484Z,73.80
2018-04-16T08:11:51.120Z,73.30
2018-04-16T08:15:53.766Z,72.70
2018-04-16T08:19:56.418Z,69.40
2018-04-16T08:23:59.802Z,66.50
2018-04-16T08:28:02.443Z,66.40
2018-04-16T08:32:05.084Z,67.10
2018-04-16T08:36:07.721Z,68.00
2018-04-16T08:40:10.376Z,68.40
2018-04-16T08:44:13.752Z,68.40
2018-04-16T08:48:16.396Z,68.40
2018-04-16T08:52:19.040Z,68.70
2018-04-16T08:56:21.710Z,69.10
2018-04-16T09:00:24.462Z,69.40
2018-04-16T09:04:27.060Z,70.50
2018-04-16T09:08:29.699Z,70.80
2018-04-16T09:12:32.335Z,71.00
2018-04-16T09:16:34.978Z,69.30
2018-04-16T09:20:37.620Z,70.60
2018-04-16T09:24:40.224Z,71.10
2018-04-16T09:28:42.869Z,70.20
2018-04-16T09:32:45.515Z,71.10
2018-04-16T09:36:48.163Z,71.30
2018-04-16T09:40:50.800Z,70.70
2018-04-16T09:44:53.530Z,70.50
2018-04-16T09:48:56.170Z,70.90
2018-04-16T09:52:58.806Z,71.00
2018-04-16T09:57:01.445Z,71.10
2018-04-16T10:05:39.344Z,69.30
2018-04-16T10:09:41.988Z,70.80
2018-04-16T10:13:44.632Z,70.30
2018-04-16T10:17:47.277Z,70.20
2018-04-16T10:21:50.740Z,70.00
2018-04-16T10:25:53.344Z,70.00
2018-04-16T10:29:55.989Z,70.20
2018-04-16T10:33:58.629Z,70.00
2018-04-16T10:38:01.266Z,70.00
2018-04-16T10:42:03.921Z,69.70
2018-04-16T10:46:07.353Z,68.70
2018-04-16T10:50:09.997Z,69.30
2018-04-16T10:54:12.640Z,69.20
2018-04-16T10:58:15.334Z,70.40
2018-04-16T11:02:18.024Z,70.40
2018-04-16T11:06:20.636Z,70.40
2018-04-16T11:10:23.281Z,69.80
2018-04-16T11:14:25.919Z,69.70
2018-04-16T11:18:28.566Z,70.10
2018-04-16T11:22:31.268Z,69.40
2018-04-16T11:26:33.875Z,69.40
2018-04-16T11:30:36.514Z,69.60
2018-04-16T11:34:39.978Z,70.50
2018-04-16T11:38:42.622Z,70.50
2018-04-16T11:42:45.328Z,70.00
2018-04-16T11:46:47.999Z,70.00
2018-04-16T11:50:50.644Z,69.20
2018-04-16T11:54:53.292Z,67.50
2018-04-16T11:58:56.709Z,68.60
2018-04-16T12:02:59.351Z,68.40
2018-04-16T12:07:02.719Z,66.90
2018-04-16T12:11:05.368Z,66.80
2018-04-16T12:15:08.016Z,68.20
2018-04-16T12:19:10.660Z,67.70
2018-04-16T12:23:13.333Z,66.50
2018-04-16T12:27:16.000Z,67.00
2018-04-16T12:31:19.403Z,67.40
2018-04-16T12:35:22.873Z,67.50
2018-04-16T12:39:26.313Z,69.00
2018-04-16T12:43:29.730Z,69.00
2018-04-16T12:47:33.108Z,69.50
2018-04-16T12:51:36.558Z,70.10
2018-04-16T12:55:39.204Z,70.00
2018-04-16T12:59:41.845Z,69.50
2018-04-16T13:03:44.492Z,70.00
2018-04-16T13:07:47.232Z,68.00
2018-04-16T13:11:49.887Z,70.00
2018-04-16T13:15:53.308Z,65.70
2018-04-16T13:19:56.009Z,65.50
2018-04-16T13:23:58.667Z,65.40
2018-04-16T13:28:02.100Z,65.50
2018-04-16T13:32:04.782Z,63.40
2018-04-16T13:36:07.484Z,63.50
2018-04-16T13:40:10.124Z,63.70
2018-04-16T13:44:12.812Z,64.00
2018-04-16T13:48:15.425Z,61.60
2018-04-16T13:52:18.832Z,62.30
2018-04-16T13:56:22.292Z,60.20
2018-04-16T14:00:24.932Z,60.10
2018-04-16T14:04:27.563Z,59.20
2018-04-16T14:08:30.172Z,62.00
2018-04-16T14:12:32.823Z,61.90
2018-04-16T14:16:35.463Z,59.90
2018-04-16T14:20:38.873Z,62.70
2018-04-16T14:24:42.283Z,62.70
2018-04-16T14:28:45.661Z,61.30
2018-04-16T14:32:48.305Z,61.10
2018-04-16T14:36:50.948Z,61.30
2018-04-16T14:40:53.594Z,61.20
2018-04-16T14:44:56.232Z,58.80
2018-04-16T14:48:59.600Z,58.40
2018-04-16T14:53:02.246Z,58.40
2018-04-16T14:57:05.653Z,58.50
2018-04-16T15:01:08.290Z,58.50
2018-04-16T15:05:10.946Z,58.20
2018-04-16T15:09:13.569Z,60.10
2018-04-16T15:13:16.224Z,60.40
2018-04-16T15:17:18.866Z,59.00
2018-04-16T15:21:21.521Z,58.40
2018-04-16T15:25:24.181Z,59.50
2018-04-16T15:29:26.800Z,56.10
2018-04-16T15:33:29.449Z,56.60
2018-04-16T15:37:32.092Z,57.40
2018-04-16T15:41:34.760Z,56.20
2018-04-16T15:45:37.392Z,57.30
2018-04-16T15:49:40.054Z,57.20
2018-04-16T15:53:42.691Z,58.30
2018-04-16T15:57:45.347Z,58.50
2018-04-16T16:01:47.984Z,58.80
2018-04-16T16:05:50.691Z,60.10
2018-04-16T16:09:53.424Z,58.40
2018-04-16T16:13:56.153Z,59.50
2018-04-16T16:17:58.792Z,57.60
2018-04-16T16:22:01.432Z,57.60
2018-04-16T16:26:04.078Z,57.20
2018-04-16T16:30:07.505Z,57.30
2018-04-16T16:34:10.146Z,56.70
2018-04-16T16:38:12.789Z,57.70
2018-04-16T16:42:15.429Z,57.80
2018-04-16T16:46:18.077Z,57.80
2018-04-16T16:50:20.693Z,58.80
2018-04-16T16:54:23.405Z,59.70
2018-04-16T16:58:26.039Z,60.40
2018-04-16T17:02:28.708Z,59.80
2018-04-16T17:06:31.368Z,60.80
2018-04-16T17:10:34.040Z,61.10
2018-04-16T17:14:36.693Z,61.30
2018-04-16T17:18:39.340Z,62.40
2018-04-16T17:22:42.097Z,62.00
2018-04-16T17:26:44.744Z,62.30
2018-04-16T17:30:48.114Z,62.20
2018-04-16T17:34:50.824Z,62.10
2018-04-16T17:38:54.290Z,62.40
2018-04-16T17:42:56.932Z,62.40
2018-04-16T17:47:00.341Z,62.40
2018-04-16T17:51:03.763Z,62.20
2018-04-16T17:55:06.476Z,62.20
2018-04-16T17:59:09.135Z,61.90
2018-04-16T18:03:11.832Z,61.90
2018-04-16T18:07:14.500Z,62.40
2018-04-16T18:11:17.876Z,62.50
2018-04-16T18:15:20.537Z,62.40
2018-04-16T18:19:23.175Z,62.30
2018-04-16T18:23:27.415Z,62.90
2018-04-16T18:27:30.189Z,62.20
2018-04-16T18:31:35.118Z,62.90
2018-04-16T18:35:40.174Z,63.10
2018-04-16T18:39:43.224Z,64.90
2018-04-16T18:43:45.913Z,63.20
2018-04-16T18:47:48.548Z,63.00
2018-04-16T18:51:51.980Z,63.30
2018-04-16T18:55:55.760Z,63.30
2018-04-16T18:59:59.248Z,63.60
2018-04-16T19:04:06.029Z,64.20
2018-04-16T19:08:08.766Z,62.80
2018-04-16T19:12:11.431Z,63.80
2018-04-16T19:16:19.587Z,63.60
2018-04-16T19:20:27.807Z,62.90
2018-04-16T19:24:30.443Z,63.70
2018-04-16T19:28:34.186Z,63.70
2018-04-16T19:32:42.552Z,63.20
2018-04-16T19:36:45.264Z,64.00
2018-04-16T19:40:47.946Z,64.10
2018-04-16T19:44:50.598Z,64.30
2018-04-16T19:53:34.567Z,64.90
2018-04-16T19:57:42.979Z,64.90
2018-04-16T20:01:45.630Z,64.90
2018-04-16T20:05:48.344Z,65.10
2018-04-16T20:09:51.749Z,65.30
2018-04-16T20:13:55.168Z,65.40
2018-04-16T20:17:57.827Z,65.20
2018-04-16T20:22:01.280Z,65.30
2018-04-16T20:26:03.952Z,64.60
2018-04-16T20:30:07.476Z,65.30
2018-04-16T20:34:10.145Z,64.50
2018-04-16T20:38:13.649Z,65.40
2018-04-16T20:42:16.287Z,65.20
2018-04-16T20:46:18.940Z,65.40
2018-04-16T20:50:21.587Z,65.30
2018-04-16T20:54:24.204Z,65.30
2018-04-16T20:58:27.634Z,65.30
2018-04-16T21:02:30.288Z,65.30
2018-04-16T21:06:32.943Z,65.30
2018-04-16T21:10:35.598Z,65.30
2018-04-16T21:14:38.208Z,65.40
2018-04-16T21:18:40.843Z,65.40
2018-04-16T21:22:43.540Z,65.40
2018-04-16T21:26:47.010Z,65.50
2018-04-16T21:30:49.659Z,65.50
2018-04-16T21:34:52.319Z,65.60
2018-04-16T21:38:55.723Z,65.60
2018-04-16T21:42:59.128Z,66.70
2018-04-16T21:47:01.767Z,65.70
2018-04-16T21:51:04.423Z,65.70
2018-04-16T21:55:07.126Z,65.60
2018-04-16T21:59:09.827Z,65.60
2018-04-16T22:03:12.498Z,65.70
2018-04-16T22:07:15.144Z,65.70
2018-04-16T22:11:17.787Z,65.70
2018-04-16T22:15:20.401Z,65.70
2018-04-16T22:19:23.163Z,65.80
2018-04-16T22:23:25.811Z,65.80
2018-04-16T22:27:28.468Z,65.10
2018-04-16T22:31:31.117Z,65.90
2018-04-16T22:35:33.728Z,65.80
2018-04-16T22:39:36.376Z,65.90
2018-04-16T22:43:39.798Z,66.00
2018-04-16T22:47:42.437Z,65.90
2018-04-16T22:51:45.081Z,65.90
2018-04-16T22:55:47.715Z,65.90
2018-04-16T22:59:50.388Z,66.10
2018-04-16T23:03:53.043Z,65.90
2018-04-16T23:07:55.689Z,65.90
2018-04-16T23:11:58.323Z,66.10
2018-04-16T23:16:00.937Z,66.10
2018-04-16T23:20:03.580Z,66.10
2018-04-16T23:24:07.002Z,66.10
2018-04-16T23:28:09.644Z,66.10
2018-04-16T23:32:12.256Z,66.10
2018-04-16T23:36:15.674Z,66.10
2018-04-16T23:40:19.091Z,66.10
2018-04-16T23:44:21.760Z,66.10
2018-04-16T23:48:24.444Z,66.00
2018-04-16T23:52:27.824Z,66.10
2018-04-16T23:56:30.464Z,66.10
